createdAt,value
2018-02-08T00:00:39.005Z,52.92
2018-02-08T00:03:10.096Z,55.83
2018-02-08T00:05:41.220Z,51.33
2018-02-08T00:08:12.316Z,60.57
2018-02-08T00:10:43.431Z,52.03
2018-02-08T00:13:14.538Z,54.25
2018-02-08T00:15:45.638Z,53.50
2018-02-08T00:18:16.723Z,58.97
2018-02-08T00:20:47.827Z,54.47
2018-02-08T00:23:18.928Z,53.30
2018-02-08T00:25:50.004Z,55.25
2018-02-08T00:28:22.013Z,53.75
2018-02-08T00:30:53.105Z,53.83
2018-02-08T00:33:24.186Z,55.33
2018-02-08T00:35:55.323Z,55.83
2018-02-08T00:38:26.446Z,58.80
2018-02-08T00:40:57.592Z,56.60
2018-02-08T00:43:28.699Z,51.80
2018-02-08T00:45:59.831Z,58.85
2018-02-08T00:48:30.929Z,52.80
2018-02-08T00:51:02.043Z,55.97
2018-02-08T00:53:33.164Z,55.80
2018-02-08T00:56:04.301Z,56.13
2018-02-08T00:58:35.948Z,57.42
2018-02-08T01:01:07.106Z,53.65
2018-02-08T01:03:38.209Z,55.67
2018-02-08T01:06:09.314Z,50.92
2018-02-08T01:08:40.415Z,53.58
2018-02-08T01:11:11.457Z,49.78
2018-02-08T01:13:42.505Z,55.40
2018-02-08T01:16:13.587Z,50.25
2018-02-08T01:18:44.711Z,51.20
2018-02-08T01:21:15.757Z,56.50
2018-02-08T01:23:46.865Z,54.17
2018-02-08T01:26:17.973Z,53.85
2018-02-08T01:28:49.078Z,60.20
2018-02-08T01:31:20.195Z,53.55
2018-02-08T01:33:51.259Z,57.35
2018-02-08T01:36:22.376Z,54.65
2018-02-08T01:38:53.435Z,56.20
2018-02-08T01:41:24.499Z,49.80
2018-02-08T01:43:55.579Z,56.10
2018-02-08T01:46:26.617Z,49.88
2018-02-08T01:48:57.682Z,55.42
2018-02-08T01:51:28.723Z,53.45
2018-02-08T01:53:59.769Z,55.25
2018-02-08T01:56:30.823Z,55.78
2018-02-08T01:59:01.895Z,61.90
2018-02-08T02:01:32.994Z,54.67
2018-02-08T02:04:04.220Z,57.97
2018-02-08T02:06:35.317Z,57.38
2018-02-08T02:09:06.393Z,53.67
2018-02-08T02:11:37.435Z,55.60
2018-02-08T02:14:08.552Z,57.85
2018-02-08T02:16:39.651Z,54.58
2018-02-08T02:19:10.731Z,53.90
2018-02-08T02:21:41.773Z,55.70
2018-02-08T02:24:12.825Z,55.67
2018-02-08T02:26:43.947Z,60.88
2018-02-08T02:29:15.013Z,51.67
2018-02-08T02:31:46.099Z,54.17
2018-02-08T02:34:17.149Z,58.72
2018-02-08T02:36:48.245Z,54.28
2018-02-08T02:39:19.320Z,56.47
2018-02-08T02:41:50.399Z,57.15
2018-02-08T02:44:21.402Z,59.55
2018-02-08T02:46:52.441Z,58.63
2018-02-08T02:49:23.505Z,56.53
2018-02-08T02:51:54.652Z,59.17
2018-02-08T02:54:25.730Z,60.70
2018-02-08T02:56:56.834Z,59.65
2018-02-08T02:59:27.910Z,56.90
2018-02-08T03:01:59.010Z,50.17
2018-02-08T03:04:30.044Z,53.90
2018-02-08T03:07:01.125Z,53.70
2018-02-08T03:09:32.167Z,55.47
2018-02-08T03:12:03.261Z,50.22
2018-02-08T03:14:34.367Z,55.80
2018-02-08T03:17:05.457Z,55.15
2018-02-08T03:19:36.502Z,53.40
2018-02-08T03:22:07.544Z,54.03
2018-02-08T03:24:38.623Z,56.75
2018-02-08T03:27:09.711Z,59.75
2018-02-08T03:29:40.793Z,55.12
2018-02-08T03:32:11.909Z,56.22
2018-02-08T03:34:42.971Z,54.63
2018-02-08T03:37:14.079Z,54.67
2018-02-08T03:39:45.144Z,56.05
2018-02-08T03:42:16.224Z,53.15
2018-02-08T03:44:47.292Z,50.47
2018-02-08T03:47:18.375Z,52.97
2018-02-08T03:49:49.404Z,51.75
2018-02-08T03:52:20.493Z,50.17
2018-02-08T03:54:51.573Z,51.37
2018-02-08T03:57:22.621Z,51.50
2018-02-08T03:59:53.755Z,52.13
2018-02-08T04:02:24.820Z,51.08
2018-02-08T04:04:55.830Z,53.38
2018-02-08T04:07:26.901Z,53.33
2018-02-08T04:09:57.953Z,57.80
2018-02-08T04:12:29.019Z,54.10
2018-02-08T04:15:00.057Z,56.63
2018-02-08T04:17:31.149Z,52.67
2018-02-08T04:20:02.207Z,53.00
2018-02-08T04:22:33.272Z,49.20
2018-02-08T04:25:04.329Z,53.13
2018-02-08T04:27:35.366Z,55.83
2018-02-08T04:30:06.462Z,52.47
2018-02-08T04:32:37.542Z,49.75
2018-02-08T04:35:08.640Z,55.28
2018-02-08T04:37:39.705Z,56.17
2018-02-08T04:40:23.135Z,52.83
2018-02-08T04:43:06.640Z,54.70
2018-02-08T04:45:49.975Z,52.00
2018-02-08T04:48:21.071Z,52.72
2018-02-08T04:50:52.175Z,60.58
2018-02-08T04:53:23.257Z,57.92
2018-02-08T04:55:54.335Z,53.28
2018-02-08T04:58:25.416Z,53.70
2018-02-08T05:00:56.495Z,50.40
2018-02-08T05:03:27.584Z,53.33
2018-02-08T05:05:58.631Z,59.88
2018-02-08T05:08:29.708Z,54.35
2018-02-08T05:11:00.778Z,49.67
2018-02-08T05:13:31.808Z,53.63
2018-02-08T05:16:02.891Z,51.17
2018-02-08T05:18:33.970Z,57.33
2018-02-08T05:21:05.031Z,54.58
2018-02-08T05:23:36.086Z,51.28
2018-02-08T05:26:07.238Z,58.40
2018-02-08T05:28:38.326Z,55.25
2018-02-08T05:31:09.392Z,56.37
2018-02-08T05:33:40.485Z,51.17
2018-02-08T05:36:11.533Z,55.83
2018-02-08T05:38:42.608Z,55.42
2018-02-08T05:41:13.723Z,54.15
2018-02-08T05:43:44.788Z,54.28
2018-02-08T05:46:15.848Z,60.38
2018-02-08T05:48:46.870Z,53.78
2018-02-08T05:51:17.890Z,56.03
2018-02-08T05:53:48.985Z,52.53
2018-02-08T05:56:20.050Z,54.03
2018-02-08T05:58:51.164Z,50.00
2018-02-08T06:01:22.268Z,54.58
2018-02-08T06:03:53.842Z,54.17
2018-02-08T06:06:24.910Z,55.40
2018-02-08T06:08:56.430Z,55.08
2018-02-08T06:11:27.528Z,58.05
2018-02-08T06:13:58.644Z,57.70
2018-02-08T06:16:29.743Z,55.00
2018-02-08T06:19:00.864Z,56.08
2018-02-08T06:21:31.945Z,59.20
2018-02-08T06:24:03.023Z,55.60
2018-02-08T06:26:34.104Z,59.03
2018-02-08T06:29:05.177Z,61.03
2018-02-08T06:31:36.298Z,61.65
2018-02-08T06:34:07.383Z,51.78
2018-02-08T06:36:38.523Z,59.40
2018-02-08T06:39:09.580Z,53.40
2018-02-08T06:41:40.690Z,58.47
2018-02-08T06:44:11.748Z,58.78
2018-02-08T06:46:42.887Z,59.75
2018-02-08T06:49:13.949Z,64.53
2018-02-08T06:51:45.026Z,62.43
2018-02-08T06:54:16.090Z,59.83
2018-02-08T06:56:47.209Z,56.17
2018-02-08T06:59:18.307Z,60.45
2018-02-08T07:01:49.391Z,55.73
2018-02-08T07:04:20.475Z,57.60
2018-02-08T07:06:51.525Z,57.17
2018-02-08T07:09:22.624Z,54.17
2018-02-08T07:11:53.663Z,58.60
2018-02-08T07:14:24.703Z,58.38
2018-02-08T07:16:55.786Z,61.03
2018-02-08T07:19:26.821Z,61.17
2018-02-08T07:21:57.849Z,50.12
2018-02-08T07:24:28.901Z,52.50
2018-02-08T07:26:59.974Z,52.75
2018-02-08T07:29:31.015Z,53.30
2018-02-08T07:32:02.096Z,56.75
2018-02-08T07:34:33.247Z,54.07
2018-02-08T07:37:04.334Z,64.00
2018-02-08T07:39:35.437Z,54.78
2018-02-08T07:42:06.560Z,56.27
2018-02-08T07:44:37.683Z,57.30
2018-02-08T07:47:08.763Z,63.57
2018-02-08T07:49:39.823Z,56.87
2018-02-08T07:52:10.882Z,60.65
2018-02-08T07:54:41.955Z,59.47
2018-02-08T07:57:13.032Z,56.40
2018-02-08T07:59:44.155Z,56.93
2018-02-08T08:02:15.229Z,61.57
2018-02-08T08:04:53.133Z,54.77
2018-02-08T08:07:24.241Z,64.03
2018-02-08T08:09:55.340Z,52.60
2018-02-08T08:12:26.400Z,56.17
2018-02-08T08:14:57.470Z,58.37
2018-02-08T08:17:28.522Z,51.77
2018-02-08T08:19:59.643Z,57.93
2018-02-08T08:22:30.690Z,56.23
2018-02-08T08:25:02.767Z,56.43
2018-02-08T08:27:33.926Z,51.87
2018-02-08T08:30:04.997Z,55.63
2018-02-08T08:32:36.086Z,53.07
2018-02-08T08:35:07.199Z,61.27
2018-02-08T08:37:38.267Z,50.73
2018-02-08T08:40:09.363Z,58.27
2018-02-08T08:42:40.439Z,50.63
2018-02-08T08:45:11.515Z,54.37
2018-02-08T08:47:42.581Z,53.77
2018-02-08T08:50:13.641Z,53.53
2018-02-08T08:52:44.714Z,53.83
2018-02-08T08:55:15.792Z,62.57
2018-02-08T08:57:46.858Z,50.33
2018-02-08T09:00:17.954Z,51.10
2018-02-08T09:02:48.994Z,55.77
2018-02-08T09:05:20.087Z,54.40
2018-02-08T09:07:51.150Z,55.13
2018-02-08T09:10:22.231Z,60.10
2018-02-08T09:12:53.262Z,57.20
2018-02-08T09:15:24.336Z,51.93
2018-02-08T09:17:55.378Z,57.00
2018-02-08T09:20:26.438Z,52.97
2018-02-08T09:22:57.535Z,54.17
2018-02-08T09:25:28.585Z,54.17
2018-02-08T09:27:59.658Z,54.90
2018-02-08T09:30:30.695Z,54.23
2018-02-08T09:33:01.768Z,56.00
2018-02-08T09:35:32.864Z,54.37
2018-02-08T09:38:03.978Z,53.20
2018-02-08T09:40:35.058Z,55.93
2018-02-08T09:43:06.115Z,50.57
2018-02-08T09:45:37.251Z,58.20
2018-02-08T09:48:08.355Z,58.97
2018-02-08T09:50:39.434Z,58.50
2018-02-08T09:53:10.515Z,55.07
2018-02-08T09:55:41.612Z,55.03
2018-02-08T09:58:12.634Z,54.93
2018-02-08T10:00:43.784Z,57.37
2018-02-08T10:03:14.874Z,56.37
2018-02-08T10:05:45.992Z,54.23
2018-02-08T10:08:17.120Z,58.93
2018-02-08T10:10:49.174Z,59.30
2018-02-08T10:13:20.227Z,58.63
2018-02-08T10:15:51.268Z,55.20
2018-02-08T10:18:22.924Z,61.87
2018-02-08T10:20:53.986Z,57.17
2018-02-08T10:23:25.073Z,55.57
2018-02-08T10:25:56.134Z,60.70
2018-02-08T10:28:27.187Z,57.80
2018-02-08T10:30:58.275Z,61.17
2018-02-08T10:33:29.318Z,59.23
2018-02-08T10:36:00.430Z,58.23
2018-02-08T10:38:31.543Z,56.90
2018-02-08T10:41:02.665Z,55.87
2018-02-08T10:43:33.700Z,58.37
2018-02-08T10:46:04.793Z,61.00
2018-02-08T10:48:35.845Z,58.87
2018-02-08T10:51:07.015Z,57.63
2018-02-08T10:53:38.063Z,58.27
2018-02-08T10:56:09.192Z,60.47
2018-02-08T10:58:40.251Z,55.67
2018-02-08T11:01:11.352Z,62.60
2018-02-08T11:03:42.417Z,54.30
2018-02-08T11:06:14.174Z,55.77
2018-02-08T11:08:45.201Z,65.77
2018-02-08T11:11:16.309Z,57.00
2018-02-08T11:13:47.371Z,60.23
2018-02-08T11:16:18.546Z,61.70
2018-02-08T11:18:49.623Z,62.77
2018-02-08T11:21:20.714Z,61.97
2018-02-08T11:23:51.775Z,56.97
2018-02-08T11:26:22.843Z,59.03
2018-02-08T11:28:53.952Z,62.13
2018-02-08T11:31:25.020Z,62.17
2018-02-08T11:33:56.116Z,60.97
2018-02-08T11:36:27.161Z,66.87
2018-02-08T11:38:58.290Z,65.23
2018-02-08T11:41:29.380Z,61.80
2018-02-08T11:44:00.451Z,66.40
2018-02-08T11:46:31.557Z,65.30
2018-02-08T11:49:02.820Z,67.87
2018-02-08T11:51:33.954Z,66.83
2018-02-08T11:54:05.170Z,68.43
2018-02-08T11:56:36.242Z,69.67
2018-02-08T11:59:07.324Z,74.20
2018-02-08T12:01:38.438Z,70.63
2018-02-08T12:04:09.568Z,72.80
2018-02-08T12:06:41.471Z,75.67
2018-02-08T12:09:12.561Z,71.43
2018-02-08T12:11:43.655Z,72.20
2018-02-08T12:14:14.689Z,79.00
2018-02-08T12:16:45.795Z,88.73
2018-02-08T12:19:16.892Z,76.87
2018-02-08T12:21:48.026Z,78.13
2018-02-08T12:24:19.129Z,78.37
2018-02-08T12:26:50.232Z,77.50
2018-02-08T12:29:21.325Z,73.80
2018-02-08T12:31:52.371Z,71.90
2018-02-08T12:34:23.456Z,77.13
2018-02-08T12:36:54.531Z,80.57
2018-02-08T12:39:26.542Z,74.97
2018-02-08T12:41:57.618Z,72.07
2018-02-08T12:44:28.714Z,84.63
2018-02-08T12:46:59.777Z,79.77
2018-02-08T12:49:30.894Z,76.90
2018-02-08T12:52:01.958Z,82.80
2018-02-08T12:54:33.040Z,80.80
2018-02-08T12:57:04.177Z,80.60
2018-02-08T12:59:35.257Z,82.53
2018-02-08T13:02:06.308Z,78.30
2018-02-08T13:04:37.960Z,80.70
2018-02-08T13:07:09.204Z,84.17
2018-02-08T13:09:40.299Z,75.60
2018-02-08T13:12:11.401Z,86.80
2018-02-08T13:14:42.494Z,81.50
2018-02-08T13:17:13.589Z,87.20
2018-02-08T13:19:44.710Z,74.77
2018-02-08T13:22:15.807Z,76.20
2018-02-08T13:24:46.897Z,76.37
2018-02-08T13:27:18.083Z,73.20
2018-02-08T13:29:49.199Z,80.77
2018-02-08T13:32:20.246Z,84.63
2018-02-08T13:34:51.357Z,83.23
2018-02-08T13:37:22.467Z,87.83
2018-02-08T13:43:00.442Z,101.67
2018-02-08T13:45:32.687Z,104.57
2018-02-08T13:48:07.547Z,100.73
2018-02-08T13:54:03.469Z,99.87
2018-02-08T13:56:36.423Z,98.77
2018-02-08T13:59:13.581Z,110.80
2018-02-08T14:01:47.515Z,99.50
2018-02-08T14:04:18.597Z,97.97
2018-02-08T14:06:49.639Z,96.03
2018-02-08T14:09:20.719Z,94.70
2018-02-08T14:11:51.842Z,101.43
2018-02-08T14:14:22.903Z,96.90
2018-02-08T14:16:53.981Z,106.20
2018-02-08T14:19:25.093Z,93.37
2018-02-08T14:21:56.186Z,86.73
2018-02-08T14:24:27.248Z,73.17
2018-02-08T14:26:58.354Z,80.83
2018-02-08T14:29:29.423Z,84.20
2018-02-08T14:32:00.496Z,77.10
2018-02-08T14:34:31.608Z,78.63
2018-02-08T14:37:03.496Z,83.10
2018-02-08T14:39:34.560Z,96.67
2018-02-08T14:42:05.673Z,86.33
2018-02-08T14:44:36.725Z,91.67
2018-02-08T14:47:07.823Z,89.60
2018-02-08T14:49:39.609Z,79.87
2018-02-08T14:52:10.729Z,79.90
2018-02-08T14:54:41.812Z,77.67
2018-02-08T14:57:12.863Z,90.57
2018-02-08T14:59:43.944Z,95.87
2018-02-08T15:02:14.992Z,91.10
2018-02-08T15:04:46.086Z,89.07
2018-02-08T15:07:17.170Z,89.63
2018-02-08T15:09:48.211Z,86.33
2018-02-08T15:12:19.263Z,79.33
2018-02-08T15:14:50.348Z,83.60
2018-02-08T15:17:21.361Z,84.60
2018-02-08T15:19:52.421Z,84.27
2018-02-08T15:22:23.476Z,79.10
2018-02-08T15:24:54.563Z,85.97
2018-02-08T15:27:25.927Z,85.47
2018-02-08T15:29:57.051Z,86.53
2018-02-08T15:32:28.138Z,83.20
2018-02-08T15:34:59.572Z,83.37
2018-02-08T15:37:30.651Z,101.50
2018-02-08T15:40:01.727Z,92.13
2018-02-08T15:42:32.780Z,87.47
2018-02-08T15:45:03.929Z,90.23
2018-02-08T15:47:35.044Z,94.17
2018-02-08T15:50:06.131Z,82.13
2018-02-08T15:52:37.217Z,74.27
2018-02-08T15:55:08.303Z,78.07
2018-02-08T15:57:39.384Z,78.60
2018-02-08T16:00:10.439Z,79.03
2018-02-08T16:02:41.526Z,81.50
2018-02-08T16:05:12.591Z,80.37
2018-02-08T16:07:43.782Z,80.87
2018-02-08T16:10:14.834Z,79.00
2018-02-08T16:12:45.885Z,74.90
2018-02-08T16:15:16.993Z,79.40
2018-02-08T16:17:48.037Z,77.30
2018-02-08T16:20:19.123Z,79.60
2018-02-08T16:22:50.194Z,83.53
2018-02-08T16:25:21.257Z,85.20
2018-02-08T16:27:52.318Z,79.20
2018-02-08T16:30:23.395Z,80.23
2018-02-08T16:32:54.459Z,81.50
2018-02-08T16:35:25.518Z,81.53
2018-02-08T16:37:56.594Z,83.43
2018-02-08T16:40:27.700Z,82.23
2018-02-08T16:42:58.785Z,96.97
2018-02-08T16:45:29.883Z,89.43
2018-02-08T16:48:00.909Z,86.87
2018-02-08T16:50:32.022Z,89.57
2018-02-08T16:53:03.123Z,82.80
2018-02-08T16:55:34.184Z,83.87
2018-02-08T16:58:05.269Z,86.43
2018-02-08T17:00:36.334Z,87.97
2018-02-08T17:03:07.394Z,86.47
2018-02-08T17:05:38.456Z,95.73
2018-02-08T17:08:09.548Z,103.33
2018-02-08T17:10:40.627Z,96.33
2018-02-08T17:13:11.790Z,87.60
2018-02-08T17:15:42.897Z,100.00
2018-02-08T17:18:13.995Z,98.13
2018-02-08T17:20:45.042Z,97.63
2018-02-08T17:23:16.093Z,97.27
2018-02-08T17:25:47.132Z,97.70
2018-02-08T17:28:18.229Z,99.77
2018-02-08T17:30:49.283Z,104.87
2018-02-08T17:33:20.385Z,104.37
2018-02-08T17:35:51.438Z,109.87
2018-02-08T17:38:22.545Z,108.33
2018-02-08T17:40:53.620Z,96.90
2018-02-08T17:43:24.672Z,106.63
2018-02-08T17:45:55.806Z,92.60
2018-02-08T17:48:26.883Z,98.77
2018-02-08T17:50:57.974Z,96.53
2018-02-08T17:53:29.089Z,106.13
2018-02-08T17:56:00.202Z,96.00
2018-02-08T17:58:31.346Z,99.73
2018-02-08T18:01:02.482Z,99.37
2018-02-08T18:03:33.552Z,96.33
2018-02-08T18:06:11.579Z,100.23
2018-02-08T18:08:42.786Z,94.50
2018-02-08T18:11:13.868Z,88.03
2018-02-08T18:13:44.940Z,96.40
2018-02-08T18:16:16.008Z,91.80
2018-02-08T18:18:47.113Z,95.57
2018-02-08T18:21:18.161Z,87.80
2018-02-08T18:23:49.267Z,90.83
2018-02-08T18:26:20.373Z,90.50
2018-02-08T18:28:51.426Z,97.13
2018-02-08T18:31:22.470Z,83.73
2018-02-08T18:33:53.539Z,93.17
2018-02-08T18:36:24.572Z,83.77
2018-02-08T18:38:55.714Z,80.30
2018-02-08T18:41:26.770Z,83.13
2018-02-08T18:43:57.854Z,85.67
2018-02-08T18:46:28.901Z,82.53
2018-02-08T18:49:00.016Z,86.27
2018-02-08T18:51:31.119Z,92.00
2018-02-08T18:54:02.176Z,95.47
2018-02-08T18:56:33.282Z,93.37
2018-02-08T18:59:04.379Z,96.57
2018-02-08T19:01:35.491Z,92.83
2018-02-08T19:04:06.525Z,95.60
2018-02-08T19:06:37.616Z,93.90
2018-02-08T19:09:09.721Z,82.97
2018-02-08T19:11:40.847Z,86.60
2018-02-08T19:14:11.953Z,85.00
2018-02-08T19:16:42.996Z,88.40
2018-02-08T19:19:14.096Z,86.10
2018-02-08T19:21:45.177Z,88.07
2018-02-08T19:24:16.282Z,83.87
2018-02-08T19:26:47.364Z,82.97
2018-02-08T19:29:18.518Z,84.67
2018-02-08T19:31:49.591Z,91.80
2018-02-08T19:34:20.693Z,84.87
2018-02-08T19:36:51.783Z,82.43
2018-02-08T19:39:22.847Z,83.30
2018-02-08T19:41:53.894Z,77.47
2018-02-08T19:44:24.946Z,87.90
2018-02-08T19:46:56.028Z,89.13
2018-02-08T19:49:27.092Z,84.50
2018-02-08T19:51:58.130Z,81.23
2018-02-08T19:54:29.163Z,83.00
2018-02-08T19:57:00.259Z,92.67
2018-02-08T19:59:31.286Z,83.13
2018-02-08T20:02:02.426Z,85.53
2018-02-08T20:04:33.567Z,84.20
2018-02-08T20:07:04.939Z,89.37
2018-02-08T20:09:36.029Z,89.50
2018-02-08T20:12:07.199Z,89.80
2018-02-08T20:14:38.294Z,89.10
2018-02-08T20:17:10.870Z,91.90
2018-02-08T20:19:41.923Z,90.33
2018-02-08T20:22:12.993Z,89.10
2018-02-08T20:24:44.083Z,86.60
2018-02-08T20:27:15.174Z,85.47
2018-02-08T20:29:46.395Z,91.60
2018-02-08T20:32:17.498Z,84.87
2018-02-08T20:34:48.571Z,85.40
2018-02-08T20:37:19.648Z,84.90
2018-02-08T20:39:50.767Z,79.77
2018-02-08T20:42:27.763Z,75.57
2018-02-08T20:44:58.876Z,80.93
2018-02-08T20:47:29.953Z,87.80
2018-02-08T20:50:02.977Z,91.60
2018-02-08T20:52:34.020Z,85.27
2018-02-08T20:55:05.081Z,90.37
2018-02-08T20:57:36.234Z,85.13
2018-02-08T21:00:07.339Z,104.93
2018-02-08T21:02:38.382Z,98.17
2018-02-08T21:05:09.471Z,92.07
2018-02-08T21:07:40.582Z,88.77
2018-02-08T21:10:11.675Z,99.23
2018-02-08T21:12:42.724Z,85.95
2018-02-08T21:15:13.799Z,86.80
2018-02-08T21:17:44.934Z,85.40
2018-02-08T21:20:16.062Z,95.05
2018-02-08T21:22:47.155Z,97.95
2018-02-08T21:25:18.267Z,93.72
2018-02-08T21:27:49.349Z,95.20
2018-02-08T21:30:20.425Z,94.53
2018-02-08T21:32:51.518Z,90.05
2018-02-08T21:35:22.592Z,97.18
2018-02-08T21:37:53.698Z,92.25
2018-02-08T21:40:31.845Z,89.32
2018-02-08T21:43:02.976Z,86.22
2018-02-08T21:45:34.036Z,95.65
2018-02-08T21:48:05.155Z,90.60
2018-02-08T21:50:36.227Z,96.00
2018-02-08T21:53:07.323Z,100.60
2018-02-08T21:55:38.406Z,90.00
2018-02-08T21:58:09.453Z,89.43
2018-02-08T22:00:40.583Z,83.15
2018-02-08T22:03:11.643Z,85.12
2018-02-08T22:05:42.714Z,90.00
2018-02-08T22:08:13.799Z,86.10
2018-02-08T22:10:44.871Z,82.43
2018-02-08T22:13:15.965Z,91.37
2018-02-08T22:15:47.059Z,91.23
2018-02-08T22:18:18.110Z,87.30
2018-02-08T22:20:49.203Z,88.32
2018-02-08T22:23:20.297Z,86.12
2018-02-08T22:25:51.398Z,86.35
2018-02-08T22:28:22.456Z,99.43
2018-02-08T22:30:53.579Z,90.65
2018-02-08T22:33:24.596Z,86.60
2018-02-08T22:35:55.658Z,95.90
2018-02-08T22:38:26.780Z,83.32
2018-02-08T22:40:57.855Z,82.57
2018-02-08T22:43:28.922Z,90.85
2018-02-08T22:45:59.986Z,92.37
2018-02-08T22:48:31.032Z,92.28
2018-02-08T22:51:02.120Z,88.65
2018-02-08T22:53:33.215Z,98.47
2018-02-08T22:56:04.270Z,91.45
2018-02-08T22:58:35.377Z,88.75
2018-02-08T23:01:06.472Z,99.87
2018-02-08T23:03:37.595Z,95.75
2018-02-08T23:06:08.692Z,97.97
2018-02-08T23:08:39.770Z,96.07
2018-02-08T23:11:10.822Z,110.90
2018-02-08T23:13:41.889Z,113.97
2018-02-08T23:16:12.980Z,106.55
2018-02-08T23:18:44.074Z,109.03
2018-02-08T23:21:15.138Z,126.55
2018-02-08T23:23:46.188Z,115.25
2018-02-08T23:26:17.252Z,112.88
2018-02-08T23:28:48.378Z,111.18
2018-02-08T23:31:19.430Z,108.72
2018-02-08T23:33:50.488Z,112.62
2018-02-08T23:36:24.409Z,100.05
2018-02-08T23:38:55.474Z,107.65
2018-02-08T23:41:26.595Z,104.22
2018-02-08T23:43:57.661Z,111.85
2018-02-08T23:46:28.783Z,106.65
2018-02-08T23:48:59.847Z,109.00
2018-02-08T23:51:30.931Z,98.37
2018-02-08T23:54:02.116Z,105.37
2018-02-08T23:56:33.155Z,104.70
2018-02-08T23:59:04.260Z,110.68
